createdAt,value
2023-04-20T00:00:39.497Z,5.13
2023-04-20T00:03:08.190Z,5.40
2023-04-20T00:05:37.603Z,5.33
2023-04-20T00:08:06.094Z,5.44
2023-04-20T00:10:33.763Z,5.12
2023-04-20T00:13:01.371Z,5.18
2023-04-20T00:15:30.121Z,5.24
2023-04-20T00:17:57.895Z,5.14
2023-04-20T00:20:25.638Z,5.06
2023-04-20T00:22:54.715Z,4.81
2023-04-20T00:25:22.580Z,4.59
2023-04-20T00:27:50.358Z,4.36
2023-04-20T00:30:18.137Z,4.30
2023-04-20T00:32:51.247Z,4.25
2023-04-20T00:35:18.955Z,4.20
2023-04-20T00:37:46.643Z,4.18
2023-04-20T00:40:15.860Z,4.18
2023-04-20T00:42:43.663Z,4.24
2023-04-20T00:45:11.716Z,4.27
2023-04-20T00:47:39.676Z,4.30
2023-04-20T00:50:09.080Z,4.32
2023-04-20T00:52:37.018Z,4.00
2023-04-20T00:55:06.689Z,4.11
2023-04-20T00:57:36.456Z,4.26
2023-04-20T01:00:08.896Z,4.30
2023-04-20T01:02:36.624Z,4.28
2023-04-20T01:05:04.707Z,4.19
2023-04-20T01:07:32.495Z,4.00
2023-04-20T01:10:00.256Z,3.89
2023-04-20T01:12:27.986Z,4.03
2023-04-20T01:14:57.062Z,3.94
2023-04-20T01:17:25.006Z,3.87
2023-04-20T01:19:52.825Z,3.75
2023-04-20T01:22:22.135Z,3.62
2023-04-20T01:24:49.957Z,3.86
2023-04-20T01:27:18.125Z,3.92
2023-04-20T01:29:46.526Z,3.84
2023-04-20T01:32:14.538Z,4.00
2023-04-20T01:34:42.871Z,3.99
2023-04-20T01:37:10.570Z,3.89
2023-04-20T01:39:41.205Z,4.52
2023-04-20T01:42:09.147Z,4.93
2023-04-20T01:44:36.802Z,4.84
2023-04-20T01:47:04.645Z,4.91
2023-04-20T01:49:32.655Z,5.04
2023-04-20T01:52:00.281Z,4.93
2023-04-20T01:54:27.902Z,5.12
2023-04-20T01:56:57.724Z,5.23
2023-04-20T01:59:25.568Z,5.42
2023-04-20T02:01:53.459Z,5.57
2023-04-20T02:04:22.333Z,5.45
2023-04-20T02:06:49.964Z,5.61
2023-04-20T02:09:17.757Z,5.58
2023-04-20T02:11:46.055Z,5.59
2023-04-20T02:14:15.075Z,5.45
2023-04-20T02:16:43.691Z,5.63
2023-04-20T02:19:11.387Z,5.59
2023-04-20T02:21:39.294Z,5.75
2023-04-20T02:24:08.105Z,5.59
2023-04-20T02:26:35.765Z,5.52
2023-04-20T02:29:03.421Z,5.53
2023-04-20T02:31:32.536Z,5.70
2023-04-20T02:34:00.300Z,5.66
2023-04-20T02:36:28.191Z,5.75
2023-04-20T02:38:55.843Z,5.78
2023-04-20T02:41:23.497Z,5.54
2023-04-20T02:43:51.291Z,5.20
2023-04-20T02:46:19.139Z,5.00
2023-04-20T02:48:48.231Z,5.21
2023-04-20T02:51:15.924Z,5.20
2023-04-20T02:53:43.573Z,5.23
2023-04-20T02:56:11.261Z,5.25
2023-04-20T02:58:39.295Z,5.29
2023-04-20T03:01:07.172Z,5.35
2023-04-20T03:03:35.143Z,5.13
2023-04-20T03:06:04.437Z,5.13
2023-04-20T03:08:32.095Z,5.26
2023-04-20T03:10:59.798Z,5.41
2023-04-20T03:13:27.473Z,5.33
2023-04-20T03:15:55.162Z,5.36
2023-04-20T03:18:22.805Z,5.48
2023-04-20T03:20:50.644Z,5.17
2023-04-20T03:23:19.671Z,5.25
2023-04-20T03:25:47.363Z,5.23
2023-04-20T03:28:15.207Z,5.16
2023-04-20T03:30:42.991Z,5.25
2023-04-20T03:33:11.273Z,5.12
2023-04-20T03:35:39.383Z,4.99
2023-04-20T03:38:07.288Z,4.97
2023-04-20T03:40:36.248Z,4.94
2023-04-20T03:43:03.842Z,4.82
2023-04-20T03:45:31.459Z,4.38
2023-04-20T03:47:59.103Z,4.65
2023-04-20T03:50:27.107Z,4.75
2023-04-20T03:52:54.797Z,4.81
2023-04-20T03:55:22.412Z,5.15
2023-04-20T03:57:51.347Z,5.16
2023-04-20T04:00:19.000Z,5.18
2023-04-20T04:02:46.807Z,5.22
2023-04-20T04:05:14.576Z,5.13
2023-04-20T04:07:42.312Z,5.35
2023-04-20T04:10:11.391Z,5.15
2023-04-20T04:12:39.021Z,5.08
2023-04-20T04:15:09.694Z,5.05
2023-04-20T04:17:37.407Z,4.91
2023-04-20T04:20:08.066Z,5.03
2023-04-20T04:22:35.734Z,5.22
2023-04-20T04:25:03.468Z,5.42
2023-04-20T04:27:34.887Z,5.33
2023-04-20T04:30:03.197Z,5.36
2023-04-20T04:32:34.562Z,5.25
2023-04-20T04:35:02.309Z,5.38
2023-04-20T04:37:30.062Z,5.34
2023-04-20T04:39:58.617Z,5.22
2023-04-20T04:42:27.593Z,5.30
2023-04-20T04:44:56.292Z,5.24
2023-04-20T04:47:24.334Z,5.31
2023-04-20T04:49:53.379Z,5.22
2023-04-20T04:52:21.009Z,5.49
2023-04-20T04:54:49.409Z,5.47
2023-04-20T04:57:17.042Z,5.31
2023-04-20T04:59:44.795Z,5.52
2023-04-20T05:02:12.942Z,5.28
2023-04-20T05:04:40.734Z,5.25
2023-04-20T05:07:10.772Z,5.35
2023-04-20T05:09:38.625Z,5.25
2023-04-20T05:12:07.692Z,5.41
2023-04-20T05:14:35.451Z,5.55
2023-04-20T05:17:03.520Z,5.42
2023-04-20T05:19:31.213Z,5.55
2023-04-20T05:21:59.014Z,5.62
2023-04-20T05:24:28.045Z,5.59
2023-04-20T05:26:55.710Z,5.46
2023-04-20T05:29:23.308Z,5.63
2023-04-20T05:31:51.140Z,5.41
2023-04-20T05:34:18.748Z,5.54
2023-04-20T05:36:47.809Z,5.39
2023-04-20T05:39:15.633Z,5.51
2023-04-20T05:41:44.850Z,5.43
2023-04-20T05:44:12.494Z,5.52
2023-04-20T05:46:40.151Z,5.56
2023-04-20T05:49:07.884Z,5.54
2023-04-20T05:51:35.533Z,5.58
2023-04-20T05:54:03.431Z,5.53
2023-04-20T05:56:31.066Z,5.60
2023-04-20T05:59:00.903Z,5.44
2023-04-20T06:01:28.614Z,5.50
2023-04-20T06:03:56.415Z,5.58
2023-04-20T06:06:24.429Z,5.40
2023-04-20T06:08:52.287Z,5.66
2023-04-20T06:11:20.008Z,5.65
2023-04-20T06:13:47.622Z,5.74
2023-04-20T06:16:16.755Z,5.60
2023-04-20T06:18:44.919Z,5.77
2023-04-20T06:21:14.765Z,5.81
2023-04-20T06:23:42.520Z,5.97
2023-04-20T06:26:10.274Z,6.14
2023-04-20T06:28:38.349Z,5.99
2023-04-20T06:31:06.651Z,6.14
2023-04-20T06:33:35.800Z,6.18
2023-04-20T06:36:03.494Z,6.38
2023-04-20T06:38:31.303Z,6.26
2023-04-20T06:41:02.049Z,6.63
2023-04-20T06:43:30.041Z,6.60
2023-04-20T06:45:58.383Z,6.81
2023-04-20T06:48:32.225Z,7.17
2023-04-20T06:51:02.197Z,6.73
2023-04-20T06:53:30.263Z,7.50
2023-04-20T06:55:58.420Z,8.42
2023-04-20T06:58:26.043Z,7.59
2023-04-20T07:00:53.990Z,7.77
2023-04-20T07:03:21.771Z,7.68
2023-04-20T07:05:49.492Z,7.95
2023-04-20T07:08:18.565Z,7.93
2023-04-20T07:10:46.364Z,7.73
2023-04-20T07:13:14.030Z,7.78
2023-04-20T07:15:43.505Z,8.26
2023-04-20T07:18:11.314Z,8.18
2023-04-20T07:20:39.069Z,9.17
2023-04-20T07:23:06.917Z,9.63
2023-04-20T07:25:36.174Z,9.79
2023-04-20T07:28:03.943Z,9.23
2023-04-20T07:30:32.166Z,9.01
2023-04-20T07:32:59.819Z,8.97
2023-04-20T07:35:27.680Z,8.46
2023-04-20T07:37:55.506Z,8.79
2023-04-20T07:40:23.417Z,8.91
2023-04-20T07:42:52.518Z,8.81
2023-04-20T07:45:21.747Z,9.07
2023-04-20T07:47:51.453Z,9.84
2023-04-20T07:50:19.431Z,9.71
2023-04-20T07:52:47.420Z,9.99
2023-04-20T07:55:15.952Z,9.68
2023-04-20T07:57:43.720Z,10.61
2023-04-20T08:00:15.054Z,11.51
2023-04-20T08:02:42.889Z,11.43
2023-04-20T08:05:11.199Z,11.04
2023-04-20T08:07:39.465Z,11.56
2023-04-20T08:10:08.545Z,11.48
2023-04-20T08:12:36.260Z,12.23
2023-04-20T08:15:06.397Z,12.39
2023-04-20T08:17:35.699Z,11.52
2023-04-20T08:20:05.806Z,11.16
2023-04-20T08:22:34.030Z,10.89
2023-04-20T08:25:01.869Z,10.07
2023-04-20T08:27:30.580Z,9.39
2023-04-20T08:29:58.977Z,9.78
2023-04-20T08:32:27.142Z,9.39
2023-04-20T08:34:56.831Z,10.43
2023-04-20T08:37:25.459Z,10.77
2023-04-20T08:39:53.194Z,11.35
2023-04-20T08:42:21.093Z,11.09
2023-04-20T08:44:48.872Z,11.15
2023-04-20T08:47:16.879Z,11.16
2023-04-20T08:49:45.885Z,11.27
2023-04-20T08:52:14.951Z,11.26
2023-04-20T08:54:55.325Z,11.78
2023-04-20T08:57:25.932Z,11.20
2023-04-20T08:59:53.774Z,11.03
2023-04-20T09:02:21.929Z,11.03
2023-04-20T09:04:49.927Z,12.14
2023-04-20T09:07:20.628Z,12.07
2023-04-20T09:09:58.245Z,11.56
2023-04-20T09:12:26.084Z,12.38
2023-04-20T09:14:54.874Z,13.17
2023-04-20T09:17:33.034Z,13.71
2023-04-20T09:20:01.051Z,14.13
2023-04-20T09:22:34.123Z,12.82
2023-04-20T09:25:02.442Z,13.78
2023-04-20T09:27:30.315Z,13.96
2023-04-20T09:29:59.129Z,13.84
2023-04-20T09:32:29.234Z,12.66
2023-04-20T09:34:57.184Z,12.25
2023-04-20T09:37:25.676Z,12.63
2023-04-20T09:40:00.874Z,13.52
2023-04-20T09:42:29.778Z,13.22
2023-04-20T09:44:58.604Z,13.08
2023-04-20T09:47:27.295Z,14.45
2023-04-20T09:49:56.349Z,13.19
2023-04-20T09:52:26.890Z,13.37
2023-04-20T09:54:56.127Z,13.26
2023-04-20T09:57:26.688Z,14.01
2023-04-20T09:59:55.762Z,13.66
2023-04-20T10:02:23.539Z,15.31
2023-04-20T10:04:55.351Z,14.65
2023-04-20T10:07:27.702Z,15.05
2023-04-20T10:10:11.498Z,14.86
2023-04-20T10:12:49.744Z,14.30
2023-04-20T10:15:18.472Z,12.86
2023-04-20T10:17:46.483Z,13.23
2023-04-20T10:20:21.345Z,13.05
2023-04-20T10:22:49.149Z,13.92
2023-04-20T10:25:20.977Z,13.40
2023-04-20T10:27:56.432Z,12.68
2023-04-20T10:30:25.475Z,12.48
2023-04-20T10:33:07.355Z,13.07
2023-04-20T10:35:48.536Z,12.61
2023-04-20T10:38:17.278Z,12.27
2023-04-20T10:40:46.340Z,12.95
2023-04-20T10:43:21.506Z,12.55
2023-04-20T10:45:50.175Z,13.49
2023-04-20T10:48:18.471Z,13.75
2023-04-20T10:50:46.659Z,13.14
2023-04-20T10:53:22.183Z,12.95
2023-04-20T10:56:00.586Z,13.26
2023-04-20T10:58:28.675Z,12.72
2023-04-20T11:01:01.192Z,13.15
2023-04-20T11:03:30.431Z,12.03
2023-04-20T11:06:01.244Z,12.77
2023-04-20T11:08:39.727Z,13.51
2023-04-20T11:11:19.059Z,13.16
2023-04-20T11:13:46.812Z,14.26
2023-04-20T11:16:16.083Z,14.44
2023-04-20T11:18:52.700Z,14.62
2023-04-20T11:21:20.700Z,15.31
2023-04-20T11:23:49.501Z,15.41
2023-04-20T11:26:18.829Z,15.39
2023-04-20T11:28:55.579Z,15.29
2023-04-20T11:31:24.058Z,14.22
2023-04-20T11:33:52.046Z,13.10
2023-04-20T11:36:21.430Z,12.83
2023-04-20T11:38:49.683Z,12.75
2023-04-20T11:41:19.324Z,13.33
2023-04-20T11:43:47.109Z,13.19
2023-04-20T11:46:16.875Z,13.57
2023-04-20T11:48:44.802Z,13.88
2023-04-20T11:51:12.617Z,14.25
2023-04-20T11:53:40.695Z,14.33
2023-04-20T11:56:09.397Z,14.11
2023-04-20T11:58:38.612Z,14.08
2023-04-20T12:01:06.825Z,13.44
2023-04-20T12:03:34.839Z,13.95
2023-04-20T12:06:02.629Z,13.90
2023-04-20T12:08:31.549Z,13.53
2023-04-20T12:10:59.184Z,13.89
2023-04-20T12:13:26.917Z,13.81
2023-04-20T12:15:56.014Z,13.25
2023-04-20T12:18:23.759Z,13.44
2023-04-20T12:20:51.593Z,13.33
2023-04-20T12:23:19.228Z,12.57
2023-04-20T12:25:46.987Z,12.36
2023-04-20T12:28:15.217Z,12.41
2023-04-20T12:30:43.182Z,12.34
2023-04-20T12:33:12.622Z,11.31
2023-04-20T12:35:40.430Z,11.26
2023-04-20T12:38:08.150Z,11.40
2023-04-20T12:40:36.511Z,10.98
2023-04-20T12:43:04.206Z,10.97
2023-04-20T12:45:32.174Z,10.55
2023-04-20T12:48:00.687Z,10.39
2023-04-20T12:50:29.953Z,9.84
2023-04-20T12:52:58.479Z,9.89
2023-04-20T12:55:27.187Z,9.77
2023-04-20T12:57:54.911Z,9.71
2023-04-20T13:00:22.801Z,9.29
2023-04-20T13:02:51.343Z,9.05
2023-04-20T13:05:19.860Z,9.30
2023-04-20T13:07:49.141Z,9.37
2023-04-20T13:10:17.034Z,9.48
2023-04-20T13:12:44.676Z,9.22
2023-04-20T13:15:13.135Z,9.40
2023-04-20T13:17:41.291Z,8.67
2023-04-20T13:20:09.887Z,8.78
2023-04-20T13:22:50.515Z,8.95
2023-04-20T13:25:26.846Z,9.30
2023-04-20T13:27:55.577Z,9.84
2023-04-20T13:30:24.559Z,9.81
2023-04-20T13:32:52.619Z,9.45
2023-04-20T13:35:20.534Z,9.51
2023-04-20T13:37:48.489Z,9.78
2023-04-20T13:40:16.370Z,9.51
2023-04-20T13:42:45.360Z,9.70
2023-04-20T13:45:13.772Z,9.62
2023-04-20T13:47:41.882Z,9.75
2023-04-20T13:50:10.494Z,9.80
2023-04-20T13:52:38.403Z,9.96
2023-04-20T13:55:06.644Z,9.92
2023-04-20T13:57:34.326Z,9.74
2023-04-20T14:00:05.068Z,10.25
2023-04-20T14:02:33.981Z,10.71
2023-04-20T14:05:03.858Z,10.60
2023-04-20T14:07:32.070Z,10.56
2023-04-20T14:10:00.401Z,10.51
2023-04-20T14:12:28.453Z,10.55
2023-04-20T14:14:58.537Z,10.47
2023-04-20T14:17:27.942Z,10.73
2023-04-20T14:19:55.924Z,10.35
2023-04-20T14:22:26.172Z,10.77
2023-04-20T14:24:53.824Z,10.38
2023-04-20T14:27:21.462Z,10.72
2023-04-20T14:29:49.157Z,10.62
2023-04-20T14:32:16.701Z,10.27
2023-04-20T14:34:45.600Z,10.06
2023-04-20T14:37:13.191Z,10.24
2023-04-20T14:39:41.260Z,10.31
2023-04-20T14:42:08.929Z,10.61
2023-04-20T14:44:36.779Z,10.76
2023-04-20T14:47:04.431Z,10.77
2023-04-20T14:49:32.135Z,11.02
2023-04-20T14:52:01.265Z,11.26
2023-04-20T14:54:29.712Z,11.17
2023-04-20T14:56:58.258Z,11.09
2023-04-20T14:59:26.954Z,11.04
2023-04-20T15:02:03.468Z,11.32
2023-04-20T15:04:31.560Z,11.16
2023-04-20T15:07:00.720Z,11.10
2023-04-20T15:09:28.263Z,10.70
2023-04-20T15:11:56.640Z,10.77
2023-04-20T15:14:24.350Z,10.49
2023-04-20T15:16:52.548Z,10.53
2023-04-20T15:19:20.671Z,10.54
2023-04-20T15:21:48.364Z,10.43
2023-04-20T15:24:17.744Z,10.68
2023-04-20T15:26:45.690Z,10.82
2023-04-20T15:29:13.508Z,10.61
2023-04-20T15:31:43.198Z,11.06
2023-04-20T15:34:11.226Z,10.97
2023-04-20T15:36:39.025Z,10.80
2023-04-20T15:39:07.262Z,10.74
2023-04-20T15:41:36.290Z,10.60
2023-04-20T15:44:03.976Z,10.00
2023-04-20T15:46:31.783Z,9.95
2023-04-20T15:48:59.675Z,10.37
2023-04-20T15:51:28.084Z,9.72
2023-04-20T15:53:55.942Z,9.82
2023-04-20T15:56:24.225Z,9.78
2023-04-20T15:58:53.330Z,9.62
2023-04-20T16:01:21.557Z,9.44
2023-04-20T16:03:49.789Z,9.77
2023-04-20T16:06:17.808Z,9.75
2023-04-20T16:08:45.735Z,9.73
2023-04-20T16:11:13.396Z,9.94
2023-04-20T16:13:41.145Z,9.85
2023-04-20T16:16:10.660Z,9.73
2023-04-20T16:18:38.382Z,9.79
2023-04-20T16:21:06.159Z,9.61
2023-04-20T16:23:33.919Z,9.67
2023-04-20T16:26:01.769Z,9.57
2023-04-20T16:28:29.764Z,9.67
2023-04-20T16:30:57.735Z,9.79
2023-04-20T16:33:27.127Z,9.68
2023-04-20T16:35:54.941Z,9.63
2023-04-20T16:38:22.785Z,9.27
2023-04-20T16:40:50.829Z,9.45
2023-04-20T16:43:18.514Z,9.45
2023-04-20T16:45:46.281Z,9.86
2023-04-20T16:48:14.065Z,9.80
2023-04-20T16:50:43.136Z,9.85
2023-04-20T16:53:11.174Z,10.11
2023-04-20T16:55:38.907Z,10.38
2023-04-20T16:58:06.762Z,10.31
2023-04-20T17:00:35.436Z,10.23
2023-04-20T17:03:10.183Z,9.92
2023-04-20T17:05:41.665Z,9.79
2023-04-20T17:08:11.339Z,9.43
2023-04-20T17:10:39.583Z,9.12
2023-04-20T17:13:07.293Z,9.03
2023-04-20T17:15:35.282Z,8.99
2023-04-20T17:18:04.534Z,8.85
2023-04-20T17:20:32.243Z,8.78
2023-04-20T17:23:00.067Z,8.83
2023-04-20T17:25:29.348Z,8.76
2023-04-20T17:27:58.723Z,8.62
2023-04-20T17:30:26.529Z,8.58
2023-04-20T17:32:54.324Z,8.55
2023-04-20T17:35:24.048Z,8.57
2023-04-20T17:37:52.807Z,8.68
2023-04-20T17:40:20.873Z,8.65
2023-04-20T17:42:50.281Z,8.53
2023-04-20T17:45:18.285Z,8.55
2023-04-20T17:47:46.245Z,8.76
2023-04-20T17:50:16.430Z,8.70
2023-04-20T17:52:44.598Z,8.46
2023-04-20T17:55:12.436Z,8.48
2023-04-20T17:57:40.720Z,8.47
2023-04-20T18:00:12.411Z,8.41
2023-04-20T18:02:41.654Z,8.38
2023-04-20T18:05:09.887Z,8.42
2023-04-20T18:07:37.690Z,8.52
2023-04-20T18:10:07.264Z,8.36
2023-04-20T18:12:35.680Z,8.26
2023-04-20T18:15:04.320Z,8.30
2023-04-20T18:17:34.811Z,8.17
2023-04-20T18:20:08.105Z,8.08
2023-04-20T18:22:37.285Z,7.88
2023-04-20T18:25:10.779Z,7.84
2023-04-20T18:27:38.762Z,7.82
2023-04-20T18:30:09.417Z,7.94
2023-04-20T18:32:39.389Z,7.89
2023-04-20T18:35:08.568Z,8.06
2023-04-20T18:37:36.294Z,7.99
2023-04-20T18:40:04.696Z,7.89
2023-04-20T18:42:34.001Z,7.83
2023-04-20T18:45:02.183Z,7.77
2023-04-20T18:47:29.963Z,7.70
2023-04-20T18:49:59.061Z,7.54
2023-04-20T18:52:26.920Z,7.46
2023-04-20T18:54:55.426Z,7.49
2023-04-20T18:57:26.291Z,7.62
2023-04-20T18:59:54.112Z,7.68
2023-04-20T19:02:22.031Z,7.84
2023-04-20T19:04:50.925Z,7.70
2023-04-20T19:07:20.354Z,7.83
2023-04-20T19:09:48.085Z,7.87
2023-04-20T19:12:15.927Z,8.03
2023-04-20T19:14:43.710Z,8.09
2023-04-20T19:17:11.462Z,7.77
2023-04-20T19:19:39.484Z,7.56
2023-04-20T19:22:07.312Z,8.16
2023-04-20T19:24:36.730Z,8.10
2023-04-20T19:27:04.717Z,8.22
2023-04-20T19:29:32.921Z,8.25
2023-04-20T19:32:00.603Z,8.36
2023-04-20T19:34:28.389Z,8.46
2023-04-20T19:36:56.074Z,8.22
2023-04-20T19:39:23.782Z,8.56
2023-04-20T19:41:52.922Z,8.64
2023-04-20T19:44:20.685Z,8.78
2023-04-20T19:46:49.902Z,8.62
2023-04-20T19:49:17.901Z,8.65
2023-04-20T19:51:45.747Z,9.04
2023-04-20T19:54:16.568Z,9.05
2023-04-20T19:56:44.248Z,8.75
2023-04-20T19:59:13.421Z,8.42
2023-04-20T20:01:41.122Z,8.80
2023-04-20T20:04:09.080Z,8.76
2023-04-20T20:06:36.971Z,8.87
2023-04-20T20:09:06.069Z,8.92
2023-04-20T20:11:34.114Z,9.01
2023-04-20T20:14:01.871Z,8.58
2023-04-20T20:16:31.007Z,8.80
2023-04-20T20:18:59.833Z,8.61
2023-04-20T20:21:27.450Z,8.73
2023-04-20T20:23:55.263Z,8.52
2023-04-20T20:26:22.909Z,8.31
2023-04-20T20:28:50.675Z,8.06
2023-04-20T20:31:18.503Z,8.20
2023-04-20T20:33:47.900Z,8.38
2023-04-20T20:36:17.864Z,8.30
2023-04-20T20:38:45.971Z,8.25
2023-04-20T20:41:14.198Z,7.86
2023-04-20T20:43:42.809Z,8.67
2023-04-20T20:46:10.923Z,8.74
2023-04-20T20:48:38.644Z,8.21
2023-04-20T20:51:07.717Z,8.23
2023-04-20T20:53:35.434Z,8.29
2023-04-20T20:56:03.104Z,7.96
2023-04-20T20:58:30.985Z,8.43
2023-04-20T21:00:58.637Z,8.28
2023-04-20T21:03:26.755Z,8.49
2023-04-20T21:05:54.709Z,8.06
2023-04-20T21:08:23.804Z,7.93
2023-04-20T21:10:51.454Z,8.10
2023-04-20T21:13:21.599Z,8.26
2023-04-20T21:15:49.638Z,7.86
2023-04-20T21:18:17.242Z,8.26
2023-04-20T21:20:44.816Z,8.06
2023-04-20T21:23:12.673Z,8.55
2023-04-20T21:25:41.634Z,8.66
2023-04-20T21:28:09.277Z,8.46
2023-04-20T21:30:36.871Z,8.59
2023-04-20T21:33:04.589Z,8.50
2023-04-20T21:35:32.289Z,8.71
2023-04-20T21:38:00.189Z,8.47
2023-04-20T21:40:27.884Z,8.58
2023-04-20T21:42:57.170Z,8.75
2023-04-20T21:45:24.794Z,8.76
2023-04-20T21:47:54.269Z,8.40
2023-04-20T21:50:27.099Z,8.49
2023-04-20T21:52:55.196Z,8.18
2023-04-20T21:55:23.219Z,7.61
2023-04-20T21:57:50.836Z,8.05
2023-04-20T22:00:20.287Z,8.46
2023-04-20T22:02:49.436Z,8.68
2023-04-20T22:05:18.166Z,8.59
2023-04-20T22:07:46.674Z,8.32
2023-04-20T22:10:14.320Z,8.53
2023-04-20T22:12:43.080Z,8.60
2023-04-20T22:15:13.470Z,8.35
2023-04-20T22:17:45.634Z,8.43
2023-04-20T22:20:14.863Z,8.00
2023-04-20T22:22:42.560Z,8.05
2023-04-20T22:25:10.931Z,7.92
2023-04-20T22:27:38.734Z,7.54
2023-04-20T22:30:09.424Z,8.02
2023-04-20T22:32:37.353Z,8.15
2023-04-20T22:35:07.717Z,7.89
2023-04-20T22:37:36.163Z,7.74
2023-04-20T22:40:05.752Z,7.61
2023-04-20T22:42:34.690Z,7.30
2023-04-20T22:45:02.450Z,7.68
2023-04-20T22:47:30.184Z,7.71
2023-04-20T22:49:57.913Z,7.85
2023-04-20T22:52:27.055Z,7.58
2023-04-20T22:54:54.759Z,7.53
2023-04-20T22:57:22.529Z,7.97
2023-04-20T22:59:50.283Z,8.11
2023-04-20T23:02:18.228Z,8.02
2023-04-20T23:04:46.044Z,8.00
2023-04-20T23:07:13.767Z,7.93
2023-04-20T23:09:42.835Z,7.89
2023-04-20T23:12:11.779Z,7.46
2023-04-20T23:14:42.235Z,7.53
2023-04-20T23:17:10.404Z,7.66
2023-04-20T23:19:38.656Z,7.96
2023-04-20T23:22:08.858Z,8.10
2023-04-20T23:24:37.292Z,7.85
2023-04-20T23:27:06.302Z,8.09
2023-04-20T23:29:34.200Z,8.09
2023-04-20T23:32:02.132Z,7.94
2023-04-20T23:34:29.840Z,7.80
2023-04-20T23:36:57.570Z,7.62
2023-04-20T23:39:25.339Z,7.44
2023-04-20T23:41:53.018Z,7.32
2023-04-20T23:44:22.097Z,7.19
2023-04-20T23:46:50.042Z,7.28
2023-04-20T23:49:17.959Z,7.28
2023-04-20T23:51:45.926Z,7.20
2023-04-20T23:54:13.877Z,7.19
2023-04-20T23:56:41.632Z,7.01
2023-04-20T23:59:09.305Z,6.87
